EDT,Max TemperatureF,Mean TemperatureF,Min TemperatureF,Max Dew PointF,MeanDew PointF,Min DewpointF,Max Humidity, Mean Humidity, Min Humidity, Max Sea Level PressureIn, Mean Sea Level PressureIn, Min Sea Level PressureIn, Max VisibilityMiles, Mean VisibilityMiles, Min VisibilityMiles, Max Wind SpeedMPH, Mean Wind SpeedMPH, Max Gust SpeedMPH,PrecipitationIn, CloudCover, Events, WindDirDegrees
2013-6-1,77,70,64,68,64,62,99,82,60,29.87,29.79,29.70,10,10,4,16,7,23,0.00,5,Rain,204
2013-6-2,68,60,52,64,55,43,93,77,66,30.00,29.81,29.67,10,10,7,21,10,29,0.00,8,Rain,272
2013-6-3,65,52,39,46,41,37,96,63,39,30.09,30.05,30.01,10,10,2,10,5,,0.00,1,,317
2013-6-4,69,58,47,48,44,36,93,60,38,30.20,30.16,30.10,10,10,10,8,3,,0.00,0,,22
2013-6-5,70,60,50,49,41,32,66,48,33,30.19,30.11,30.00,10,10,5,9,5,17,0.00,2,,76
2013-6-6,67,62,55,53,48,44,79,65,56,30.02,29.93,29.88,10,10,10,10,6,16,0.00,5,Rain,38
2013-6-7,62,56,49,53,51,49,99,85,70,29.93,29.91,29.89,10,10,4,7,2,,0.00,6,,14
2013-6-8,72,64,55,55,52,48,94,71,44,30.08,29.99,29.92,10,10,7,5,1,,0.00,6,,91
2013-6-9,76,66,56,58,55,51,94,67,50,30.12,30.06,29.96,10,10,5,17,7,23,0.00,4,,113
2013-6-10,75,68,60,68,63,51,100,91,56,29.97,29.83,29.75,10,6,1,10,6,,0.00,8,Rain,106
2013-6-11,80,72,64,67,64,62,100,81,55,29.92,29.86,29.80,10,7,1,12,6,17,0.00,5,,287
2013-6-12,73,66,59,70,65,59,99,89,78,29.95,29.85,29.66,10,8,2,10,3,,0.00,3,Rain,94
2013-6-13,75,68,61,68,60,55,99,78,49,29.95,29.77,29.60,10,8,2,14,7,22,0.00,5,Rain,351
2013-6-14,73,64,56,60,55,51,96,71,46,30.11,30.04,29.96,10,10,10,9,4,17,0.00,1,,354
2013-6-15,78,67,56,64,58,53,94,76,49,30.10,30.02,29.93,10,10,10,12,4,22,0.00,3,Rain,214
2013-6-16,80,72,64,65,61,49,98,74,36,29.92,29.86,29.79,10,10,5,17,9,25,0.00,4,Rain,252
2013-6-17,85,72,59,61,57,53,88,61,34,29.95,29.91,29.85,10,10,7,15,5,22,0.00,1,,269
2013-6-18,70,62,52,61,50,40,99,69,37,30.09,30.01,29.92,10,10,5,13,7,21,0.00,1,Rain,36
2013-6-19,73,60,46,54,47,42,94,62,36,30.19,30.14,30.09,10,10,10,8,3,,0.00,0,,97
2013-6-20,81,67,53,56,52,48,93,60,33,30.22,30.19,30.16,10,10,10,12,4,16,0.00,0,,183
2013-6-21,85,72,59,65,58,55,87,62,40,30.22,30.16,30.06,10,10,10,12,4,17,0.00,2,,170
2013-6-22,86,76,67,72,66,56,92,68,54,30.10,30.06,30.01,10,10,4,13,6,18,0.00,2,,213
2013-6-23,89,79,69,71,67,63,96,68,42,30.08,30.04,29.99,10,9,5,15,6,21,0.00,1,,216
2013-6-24,87,78,68,71,68,65,99,75,48,30.08,30.02,29.94,10,9,4,20,6,33,0.00,2,Rain,224
2013-6-25,80,73,66,72,68,64,98,87,71,30.00,29.92,29.85,10,9,3,16,6,29,0.00,4,Rain,242
2013-6-26,81,72,63,71,68,64,100,83,63,29.90,29.83,29.77,10,9,3,12,4,,0.00,2,Rain,180
2013-6-27,81,73,65,73,68,66,99,90,67,29.78,29.74,29.65,10,8,1,14,3,25,0.00,5,Rain,185
2013-6-28,77,70,63,69,65,61,100,89,61,29.66,29.61,29.55,10,8,0,13,5,24,0.00,5,Fog-Rain,298
2013-6-29,73,68,63,64,61,58,97,82,63,29.76,29.64,29.57,10,10,5,10,3,16,0.00,7,Rain,20
2013-6-30,78,70,61,62,58,48,89,70,47,29.98,29.87,29.76,10,10,7,14,3,16,0.00,5,,29